TimeCST,TemperatureF,Dew PointF,Humidity,Sea Level PressureIn,VisibilityMPH,Wind Direction,Wind SpeedMPH,Gust SpeedMPH,PrecipitationIn,Events,Conditions,WindDirDegrees,DateUTC
12:52 AM,45.0,30.0,56,29.83,10.0,South,20.7,28.8,N/A,,Overcast,180,2012-12-06 06:52:00
1:52 AM,46.0,30.0,54,29.82,10.0,South,20.7,29.9,N/A,,Overcast,190,2012-12-06 07:52:00
2:52 AM,46.0,28.9,51,29.82,10.0,South,18.4,-,N/A,,Overcast,190,2012-12-06 08:52:00
3:52 AM,45.0,33.1,63,29.82,10.0,SSW,16.1,-,0.00,Rain,Light Rain,200,2012-12-06 09:52:00
4:52 AM,42.1,36.0,79,29.83,9.0,SSW,11.5,-,0.05,Rain,Light Rain,210,2012-12-06 10:52:00
5:52 AM,42.1,36.0,79,29.86,7.0,SW,8.1,-,0.05,Rain,Light Rain,230,2012-12-06 11:52:00
6:52 AM,41.0,36.0,82,29.86,10.0,SSW,10.4,-,0.03,,Overcast,210,2012-12-06 12:52:00
7:52 AM,41.0,35.1,79,29.87,10.0,SW,9.2,-,N/A,,Overcast,230,2012-12-06 13:52:00
8:52 AM,39.9,36.0,86,29.89,10.0,West,5.8,-,N/A,,Clear,280,2012-12-06 14:52:00
9:52 AM,43.0,35.1,74,29.91,10.0,North,9.2,-,0.01,,Clear,350,2012-12-06 15:52:00
10:52 AM,43.0,32.0,65,29.92,10.0,NNW,18.4,24.2,N/A,,Clear,340,2012-12-06 16:52:00
11:52 AM,43.0,32.0,65,29.92,10.0,NNW,16.1,-,N/A,,Scattered Clouds,340,2012-12-06 17:52:00
12:52 PM,44.1,33.1,65,29.92,10.0,NNW,15.0,-,N/A,,Clear,330,2012-12-06 18:52:00
1:52 PM,45.0,33.1,63,29.92,10.0,NNW,12.7,-,N/A,,Clear,330,2012-12-06 19:52:00
2:52 PM,44.1,33.1,65,29.93,10.0,NW,9.2,-,N/A,,Overcast,310,2012-12-06 20:52:00
3:52 PM,43.0,34.0,71,29.94,10.0,NW,6.9,-,N/A,,Mostly Cloudy,310,2012-12-06 21:52:00
4:52 PM,41.0,34.0,76,29.95,10.0,NNW,5.8,-,N/A,,Mostly Cloudy,330,2012-12-06 22:52:00
5:52 PM,39.9,34.0,79,29.96,10.0,WNW,4.6,-,N/A,,Overcast,290,2012-12-06 23:52:00
6:52 PM,39.0,33.1,79,29.98,10.0,NW,5.8,-,N/A,,Overcast,320,2012-12-07 00:52:00
7:52 PM,39.0,32.0,76,29.99,10.0,North,6.9,-,N/A,,Overcast,350,2012-12-07 01:52:00
8:52 PM,37.0,28.9,73,30.00,10.0,North,10.4,-,N/A,,Overcast,360,2012-12-07 02:52:00
9:52 PM,35.1,26.1,70,30.01,10.0,North,10.4,-,N/A,,Overcast,350,2012-12-07 03:52:00
10:52 PM,34.0,26.1,73,30.03,10.0,North,8.1,-,N/A,,Overcast,10,2012-12-07 04:52:00
11:52 PM,32.0,23.0,69,30.03,10.0,North,9.2,-,N/A,,Mostly Cloudy,10,2012-12-07 05:52:00